Time;durP1;ratioP1;P1;durP2;ratioP2;P2;SDS_P1;SDS_P2;PMS_P1;PMS_P2;Temp;Humidity;BMP_temperature;BMP_pressure;BME280_temperature;BME280_humidity;BME280_pressure;Samples;Min_cycle;Max_cycle;Signal;HPM_P1;HPM_P2
2022/08/08 00:01:41;;;;;;;;;;;12.40;99.90;;;;;;5044413;28;19925;-76
2022/08/08 00:04:11;;;;;;;;;;;12.50;99.90;;;;;;5039873;28;19920;-75
2022/08/08 00:06:41;;;;;;;;;;;12.50;99.90;;;;;;5037202;28;19917;-75
2022/08/08 00:09:14;;;;;;;;;;;12.30;99.90;;;;;;5041669;28;19917;-74
2022/08/08 00:11:41;;;;;;;;;;;12.30;99.90;;;;;;5037611;28;19916;-74
2022/08/08 00:14:10;;;;;;;;;;;12.30;99.90;;;;;;5039621;28;19909;-75
2022/08/08 00:16:41;;;;;;;;;;;12.10;99.90;;;;;;5038686;28;20152;-74
2022/08/08 00:19:06;;;;;;;;;;;12.30;99.90;;;;;;5043729;28;19909;-74
2022/08/08 00:21:35;;;;;;;;;;;12.40;99.90;;;;;;5043871;28;19921;-74
2022/08/08 00:24:05;;;;;;;;;;;12.40;99.90;;;;;;5038961;28;19912;-75
2022/08/08 00:26:33;;;;;;;;;;;12.40;99.90;;;;;;5042316;28;19909;-74
2022/08/08 00:29:18;;;;;;;;;;;12.10;99.90;;;;;;5036671;28;19987;-74
2022/08/08 00:31:48;;;;;;;;;;;12.10;99.90;;;;;;5036998;28;20275;-75
2022/08/08 00:37:41;;;;;;;;;;;11.90;99.90;;;;;;5037802;28;19923;-74
2022/08/08 00:40:06;;;;;;;;;;;11.80;99.90;;;;;;5038687;28;20354;-75
2022/08/08 00:42:50;;;;;;;;;;;11.90;99.90;;;;;;5042979;28;20008;-75
2022/08/08 00:45:16;;;;;;;;;;;11.90;99.90;;;;;;5039050;28;20010;-75
2022/08/08 00:48:01;;;;;;;;;;;12.00;99.90;;;;;;5037271;28;19948;-75
2022/08/08 00:50:26;;;;;;;;;;;12.00;99.90;;;;;;5035255;28;20302;-75
2022/08/08 00:52:52;;;;;;;;;;;11.90;99.90;;;;;;5041165;28;19916;-75
2022/08/08 00:55:37;;;;;;;;;;;11.90;99.90;;;;;;5049053;28;19909;-75
2022/08/08 00:58:21;;;;;;;;;;;11.90;99.90;;;;;;5050972;28;20110;-75
2022/08/08 01:01:05;;;;;;;;;;;11.80;99.90;;;;;;5050811;28;19959;-76
2022/08/08 01:03:49;;;;;;;;;;;11.70;99.90;;;;;;5050054;28;19996;-75
2022/08/08 01:06:33;;;;;;;;;;;11.70;99.90;;;;;;5045945;28;20362;-75
2022/08/08 01:09:31;;;;;;;;;;;11.70;99.90;;;;;;5050891;28;19975;-75
2022/08/08 01:12:02;;;;;;;;;;;11.70;99.90;;;;;;5034577;28;19955;-75
2022/08/08 01:14:46;;;;;;;;;;;11.50;99.90;;;;;;5047358;28;19909;-74
2022/08/08 01:17:17;;;;;;;;;;;11.40;99.90;;;;;;5052273;28;19908;-74
2022/08/08 01:19:55;;;;;;;;;;;11.40;99.90;;;;;;5052369;28;19908;-75
2022/08/08 01:22:39;;;;;;;;;;;11.40;99.90;;;;;;5053245;28;19931;-75
2022/08/08 01:25:05;;;;;;;;;;;11.20;99.90;;;;;;5048207;28;19909;-75
2022/08/08 01:27:42;;;;;;;;;;;11.20;99.90;;;;;;5051804;28;19915;-75
2022/08/08 01:30:11;;;;;;;;;;;11.20;99.90;;;;;;5053390;28;20386;-75
2022/08/08 01:32:55;;;;;;;;;;;11.00;99.90;;;;;;5051696;28;19909;-75
2022/08/08 01:35:27;;;;;;;;;;;10.90;99.90;;;;;;5052695;28;20003;-75
2022/08/08 01:38:13;;;;;;;;;;;11.10;99.90;;;;;;5053230;28;19962;-76
2022/08/08 01:40:59;;;;;;;;;;;10.90;99.90;;;;;;5049109;28;19921;-75
2022/08/08 01:43:30;;;;;;;;;;;10.80;99.90;;;;;;5051135;28;21040;-75
2022/08/08 01:45:59;;;;;;;;;;;10.80;99.90;;;;;;5056821;28;19913;-75
2022/08/08 01:48:43;;;;;;;;;;;10.90;99.90;;;;;;5052968;28;19909;-76
2022/08/08 01:51:09;;;;;;;;;;;10.90;99.90;;;;;;5052885;28;20000;-76
2022/08/08 01:53:49;;;;;;;;;;;11.10;99.90;;;;;;5051688;28;19952;-75
2022/08/08 01:56:33;;;;;;;;;;;11.00;99.90;;;;;;5051945;28;19909;-76
2022/08/08 01:58:59;;;;;;;;;;;10.90;99.90;;;;;;5050719;28;20297;-76
2022/08/08 02:01:37;;;;;;;;;;;11.00;99.90;;;;;;5052271;28;19912;-75
2022/08/08 02:04:22;;;;;;;;;;;11.10;99.90;;;;;;5051810;28;19916;-75
2022/08/08 02:06:50;;;;;;;;;;;11.10;99.90;;;;;;5052672;28;19920;-74
2022/08/08 02:09:15;;;;;;;;;;;10.80;99.90;;;;;;5051087;28;20439;-76
2022/08/08 02:11:43;;;;;;;;;;;10.80;99.90;;;;;;5050848;28;19909;-75
2022/08/08 02:14:20;;;;;;;;;;;10.90;99.90;;;;;;5054852;28;19963;-75
2022/08/08 02:16:49;;;;;;;;;;;11.10;99.90;;;;;;5055876;28;20003;-75
2022/08/08 02:19:21;;;;;;;;;;;11.00;99.90;;;;;;5052374;28;20290;-74
2022/08/08 02:24:49;;;;;;;;;;;11.00;99.90;;;;;;5051747;28;20281;-74
2022/08/08 02:27:23;;;;;;;;;;;10.90;99.90;;;;;;5052098;28;20332;-74
2022/08/08 02:29:57;;;;;;;;;;;10.80;99.90;;;;;;5051965;28;20059;-75
2022/08/08 02:32:30;;;;;;;;;;;10.70;99.90;;;;;;5051833;28;19909;-74
2022/08/08 02:34:56;;;;;;;;;;;10.60;99.90;;;;;;5050529;28;19919;-75
2022/08/08 02:37:21;;;;;;;;;;;10.60;99.90;;;;;;5052155;28;20192;-74
2022/08/08 02:39:50;;;;;;;;;;;10.60;99.90;;;;;;5051888;28;19960;-75
2022/08/08 02:42:34;;;;;;;;;;;10.50;99.90;;;;;;5052810;28;20320;-74
2022/08/08 02:45:18;;;;;;;;;;;10.50;99.90;;;;;;5051133;28;19909;-75
2022/08/08 02:48:02;;;;;;;;;;;10.40;99.90;;;;;;5047212;28;19908;-74
2022/08/08 02:50:30;;;;;;;;;;;10.40;99.90;;;;;;5049539;28;19909;-75
2022/08/08 02:53:02;;;;;;;;;;;10.40;99.90;;;;;;5049542;28;19913;-75
2022/08/08 02:55:47;;;;;;;;;;;10.50;99.90;;;;;;5051291;28;19931;-75
2022/08/08 02:58:13;;;;;;;;;;;10.40;99.90;;;;;;5046033;28;20365;-75
2022/08/08 03:00:57;;;;;;;;;;;10.40;99.90;;;;;;5049866;28;19967;-75
2022/08/08 03:03:44;;;;;;;;;;;10.30;99.90;;;;;;5050673;28;19912;-75
2022/08/08 03:06:10;;;;;;;;;;;10.30;99.90;;;;;;5051408;28;19908;-74
2022/08/08 03:08:41;;;;;;;;;;;10.30;99.90;;;;;;5050093;28;19924;-75
2022/08/08 03:11:19;;;;;;;;;;;10.30;99.90;;;;;;5051091;28;19909;-75
2022/08/08 03:14:02;;;;;;;;;;;10.30;99.90;;;;;;5044547;28;20282;-75
2022/08/08 03:16:28;;;;;;;;;;;10.20;99.90;;;;;;5046735;28;19909;-75
2022/08/08 03:18:53;;;;;;;;;;;10.20;99.90;;;;;;5051137;28;19924;-75
2022/08/08 03:21:19;;;;;;;;;;;10.20;99.90;;;;;;5050895;28;20444;-75
2022/08/08 03:23:45;;;;;;;;;;;10.10;99.90;;;;;;5050752;28;19908;-75
2022/08/08 03:26:11;;;;;;;;;;;10.10;99.90;;;;;;5051446;28;19913;-75
2022/08/08 03:28:42;;;;;;;;;;;10.00;99.90;;;;;;5050626;28;20286;-75
2022/08/08 03:33:52;;;;;;;;;;;10.00;99.90;;;;;;5051309;28;19931;-75
2022/08/08 03:36:18;;;;;;;;;;;10.10;99.90;;;;;;5051408;28;20362;-75
2022/08/08 03:38:50;;;;;;;;;;;10.00;99.90;;;;;;5051452;28;19923;-75
2022/08/08 03:41:16;;;;;;;;;;;9.90;99.90;;;;;;5051072;28;19920;-75
2022/08/08 03:43:53;;;;;;;;;;;9.90;99.90;;;;;;5054163;28;20273;-76
2022/08/08 03:46:19;;;;;;;;;;;9.90;99.90;;;;;;5050167;28;19913;-75
2022/08/08 03:48:53;;;;;;;;;;;9.90;99.90;;;;;;5050213;28;19954;-75
2022/08/08 03:51:18;;;;;;;;;;;9.90;99.90;;;;;;5050713;28;20266;-75
2022/08/08 03:53:44;;;;;;;;;;;9.90;99.90;;;;;;5050408;28;19909;-75
2022/08/08 03:56:09;;;;;;;;;;;9.80;99.90;;;;;;5051323;28;19913;-75
2022/08/08 03:58:36;;;;;;;;;;;9.80;99.90;;;;;;5050723;28;19954;-75
2022/08/08 04:01:04;;;;;;;;;;;9.60;99.90;;;;;;5050873;28;20005;-75
2022/08/08 04:03:34;;;;;;;;;;;9.80;99.90;;;;;;5052630;28;19915;-75
2022/08/08 04:06:03;;;;;;;;;;;9.90;99.90;;;;;;5054468;28;19909;-75
2022/08/08 04:08:28;;;;;;;;;;;9.90;99.90;;;;;;5050781;28;19923;-75
2022/08/08 04:10:54;;;;;;;;;;;10.00;99.90;;;;;;5051009;28;19999;-76
2022/08/08 04:13:19;;;;;;;;;;;10.00;99.90;;;;;;5048411;28;20297;-75
2022/08/08 04:15:45;;;;;;;;;;;9.90;99.90;;;;;;5050769;28;19909;-75
2022/08/08 04:18:11;;;;;;;;;;;9.90;99.90;;;;;;5050746;28;19912;-75
2022/08/08 04:20:36;;;;;;;;;;;10.00;99.90;;;;;;5049488;28;19913;-76
2022/08/08 04:23:03;;;;;;;;;;;10.00;99.90;;;;;;5050339;28;20427;-75
2022/08/08 04:25:29;;;;;;;;;;;9.90;99.90;;;;;;5050294;28;19935;-76
2022/08/08 04:27:54;;;;;;;;;;;9.80;99.90;;;;;;5053527;28;19908;-75
2022/08/08 04:30:20;;;;;;;;;;;9.70;99.90;;;;;;5054460;28;19909;-75
2022/08/08 04:32:46;;;;;;;;;;;9.70;99.90;;;;;;5050576;28;19909;-75
2022/08/08 04:35:12;;;;;;;;;;;9.80;99.90;;;;;;5053780;28;20374;-75
2022/08/08 04:37:37;;;;;;;;;;;9.80;99.90;;;;;;5054456;28;19936;-75
2022/08/08 04:40:03;;;;;;;;;;;9.80;99.90;;;;;;5054110;28;19913;-75
2022/08/08 04:42:32;;;;;;;;;;;9.70;99.90;;;;;;5053680;28;19956;-75
2022/08/08 04:44:58;;;;;;;;;;;9.80;99.90;;;;;;5053504;28;20011;-75
2022/08/08 04:47:24;;;;;;;;;;;9.80;99.90;;;;;;5054311;28;20323;-74
2022/08/08 04:49:49;;;;;;;;;;;9.80;99.90;;;;;;5054118;28;20331;-76
2022/08/08 04:52:15;;;;;;;;;;;10.00;99.90;;;;;;5052457;28;19912;-75
2022/08/08 04:54:40;;;;;;;;;;;10.00;99.90;;;;;;5053409;28;19931;-75
2022/08/08 04:57:06;;;;;;;;;;;10.10;99.90;;;;;;5053723;28;19995;-75
2022/08/08 04:59:31;;;;;;;;;;;10.10;99.90;;;;;;5053808;28;19916;-76
2022/08/08 05:01:57;;;;;;;;;;;10.30;99.90;;;;;;5052667;28;19919;-75
2022/08/08 05:04:22;;;;;;;;;;;10.30;99.90;;;;;;5060088;28;19978;-76
2022/08/08 05:06:48;;;;;;;;;;;10.40;99.90;;;;;;5053979;28;19909;-75
2022/08/08 05:09:13;;;;;;;;;;;10.40;99.90;;;;;;5052615;28;19920;-75
2022/08/08 05:11:39;;;;;;;;;;;10.50;99.90;;;;;;5053380;28;19956;-75
2022/08/08 05:14:05;;;;;;;;;;;10.60;99.90;;;;;;5052801;28;19909;-75
2022/08/08 05:16:31;;;;;;;;;;;10.70;99.90;;;;;;5052475;28;19909;-75
2022/08/08 05:18:57;;;;;;;;;;;10.90;99.90;;;;;;5053691;28;20448;-75
2022/08/08 05:21:22;;;;;;;;;;;11.00;99.90;;;;;;5053004;28;20075;-75
2022/08/08 05:23:48;;;;;;;;;;;11.00;99.90;;;;;;5051612;28;20011;-75
2022/08/08 05:26:13;;;;;;;;;;;11.00;99.90;;;;;;5054142;28;20149;-75
2022/08/08 05:28:39;;;;;;;;;;;11.10;99.90;;;;;;5052285;28;20000;-76
2022/08/08 05:31:04;;;;;;;;;;;11.20;99.90;;;;;;5053484;28;20447;-75
2022/08/08 05:33:30;;;;;;;;;;;11.30;99.90;;;;;;5056911;28;19924;-75
2022/08/08 05:35:57;;;;;;;;;;;11.40;99.90;;;;;;5054570;28;19960;-75
2022/08/08 05:38:25;;;;;;;;;;;11.40;99.90;;;;;;5053292;28;19909;-75
2022/08/08 05:40:51;;;;;;;;;;;11.50;99.90;;;;;;5053870;28;19919;-75
2022/08/08 05:43:27;;;;;;;;;;;11.60;99.90;;;;;;5051866;28;19909;-75
2022/08/08 05:45:55;;;;;;;;;;;11.90;99.90;;;;;;5053175;28;19916;-76
2022/08/08 05:48:20;;;;;;;;;;;12.20;99.90;;;;;;5051392;28;20086;-75
2022/08/08 05:50:46;;;;;;;;;;;12.40;99.90;;;;;;5046184;28;19919;-75
2022/08/08 05:53:12;;;;;;;;;;;12.50;99.90;;;;;;5052206;28;19909;-75
2022/08/08 05:55:42;;;;;;;;;;;12.50;99.90;;;;;;5051731;28;19909;-75
2022/08/08 05:58:11;;;;;;;;;;;12.70;99.90;;;;;;5042224;28;19913;-76
2022/08/08 06:00:36;;;;;;;;;;;12.60;99.90;;;;;;5038373;28;19997;-75
2022/08/08 06:03:11;;;;;;;;;;;12.60;99.90;;;;;;5035408;28;20351;-75
2022/08/08 06:05:46;;;;;;;;;;;12.80;99.90;;;;;;5047687;28;20335;-75
2022/08/08 06:08:12;;;;;;;;;;;13.30;99.90;;;;;;5054750;28;19916;-75
2022/08/08 06:10:37;;;;;;;;;;;13.90;99.90;;;;;;5054009;28;19960;-75
2022/08/08 06:13:03;;;;;;;;;;;14.10;99.90;;;;;;5051280;28;19936;-76
2022/08/08 06:15:31;;;;;;;;;;;14.00;99.90;;;;;;5052705;28;20351;-75
2022/08/08 06:17:57;;;;;;;;;;;13.90;99.90;;;;;;5051994;28;19909;-75
2022/08/08 06:20:23;;;;;;;;;;;13.90;99.90;;;;;;5052906;28;19999;-75
2022/08/08 06:22:48;;;;;;;;;;;14.10;99.90;;;;;;5052873;28;20000;-77
2022/08/08 06:25:14;;;;;;;;;;;14.30;99.90;;;;;;5052149;28;19912;-76
2022/08/08 06:27:54;;;;;;;;;;;14.50;99.90;;;;;;5052673;28;19959;-77
2022/08/08 06:30:20;;;;;;;;;;;14.70;99.90;;;;;;5041386;28;19909;-75
2022/08/08 06:32:50;;;;;;;;;;;14.80;99.90;;;;;;5038169;28;20131;-76
2022/08/08 06:35:16;;;;;;;;;;;15.10;99.90;;;;;;5047307;28;19909;-76
2022/08/08 06:37:51;;;;;;;;;;;15.30;99.90;;;;;;5051721;28;19920;-76
2022/08/08 06:40:17;;;;;;;;;;;15.40;99.90;;;;;;5051490;28;19912;-76
2022/08/08 06:42:49;;;;;;;;;;;15.50;99.90;;;;;;5053863;28;20254;-76
2022/08/08 06:45:15;;;;;;;;;;;15.60;99.90;;;;;;5052237;28;19909;-74
2022/08/08 06:47:41;;;;;;;;;;;15.70;99.90;;;;;;5052303;28;19913;-75
2022/08/08 06:50:07;;;;;;;;;;;15.90;99.90;;;;;;5051062;28;19920;-75
2022/08/08 06:52:33;;;;;;;;;;;16.20;99.90;;;;;;5052096;28;20441;-76
2022/08/08 06:54:59;;;;;;;;;;;16.30;99.90;;;;;;5052092;28;19996;-77
2022/08/08 06:57:25;;;;;;;;;;;16.60;99.90;;;;;;5052768;28;19916;-76
2022/08/08 06:59:52;;;;;;;;;;;16.60;99.90;;;;;;5054022;28;19913;-75
2022/08/08 07:02:24;;;;;;;;;;;16.80;99.90;;;;;;5050714;28;20367;-77
2022/08/08 07:04:53;;;;;;;;;;;16.80;99.90;;;;;;5056932;28;19992;-75
2022/08/08 07:07:22;;;;;;;;;;;17.10;99.60;;;;;;5051579;28;20070;-76
2022/08/08 07:10:00;;;;;;;;;;;17.60;99.90;;;;;;5045468;28;19909;-74
2022/08/08 07:12:32;;;;;;;;;;;17.70;99.70;;;;;;5050341;28;20276;-75
2022/08/08 07:15:02;;;;;;;;;;;19.00;96.70;;;;;;5050122;28;19912;-75
2022/08/08 07:17:31;;;;;;;;;;;19.20;95.90;;;;;;5051268;28;19944;-75
2022/08/08 07:20:04;;;;;;;;;;;19.30;97.20;;;;;;5051228;28;20033;-75
2022/08/08 07:22:40;;;;;;;;;;;19.70;97.50;;;;;;5043956;28;19936;-75
2022/08/08 07:25:08;;;;;;;;;;;19.80;95.40;;;;;;5050146;28;20389;-75
2022/08/08 07:27:41;;;;;;;;;;;20.70;95.20;;;;;;5050975;28;19920;-75
2022/08/08 07:30:07;;;;;;;;;;;22.30;91.20;;;;;;5050790;28;20378;-74
2022/08/08 07:32:33;;;;;;;;;;;23.00;87.40;;;;;;5048817;28;19909;-74
2022/08/08 07:34:59;;;;;;;;;;;23.80;86.00;;;;;;5049937;28;19991;-74
2022/08/08 07:37:24;;;;;;;;;;;24.10;84.30;;;;;;5050954;28;20012;-74
2022/08/08 07:39:51;;;;;;;;;;;24.90;81.10;;;;;;5050937;28;19948;-74
2022/08/08 07:42:17;;;;;;;;;;;24.90;78.00;;;;;;5050135;28;20326;-74
2022/08/08 07:44:43;;;;;;;;;;;25.40;79.90;;;;;;5049740;28;19948;-74
2022/08/08 07:47:09;;;;;;;;;;;25.40;76.70;;;;;;5051002;28;19913;-74
2022/08/08 07:49:35;;;;;;;;;;;25.80;76.70;;;;;;5050851;28;19955;-74
2022/08/08 07:52:01;;;;;;;;;;;25.70;75.90;;;;;;5050154;28;20289;-74
2022/08/08 07:54:37;;;;;;;;;;;25.60;77.60;;;;;;5050040;28;20440;-74
2022/08/08 07:57:17;;;;;;;;;;;26.00;75.80;;;;;;5052055;28;19912;-75
2022/08/08 07:59:46;;;;;;;;;;;25.70;77.40;;;;;;5057314;28;19964;-75
2022/08/08 08:02:13;;;;;;;;;;;26.70;74.00;;;;;;5040706;28;20277;-74
2022/08/08 08:04:42;;;;;;;;;;;27.10;71.40;;;;;;5054243;28;19958;-74
2022/08/08 08:07:09;;;;;;;;;;;27.50;70.60;;;;;;5054063;28;19909;-75
2022/08/08 08:09:37;;;;;;;;;;;27.70;71.20;;;;;;5055290;28;19969;-75
2022/08/08 08:12:03;;;;;;;;;;;27.20;70.10;;;;;;5054099;28;20003;-75
2022/08/08 08:14:33;;;;;;;;;;;26.70;74.60;;;;;;5053453;28;19998;-76
2022/08/08 08:16:59;;;;;;;;;;;27.30;72.00;;;;;;5054953;28;19916;-75
2022/08/08 08:19:29;;;;;;;;;;;27.50;71.60;;;;;;5054523;28;19908;-75
2022/08/08 08:21:55;;;;;;;;;;;27.80;71.30;;;;;;5052757;28;20075;-75
2022/08/08 08:24:20;;;;;;;;;;;28.50;66.70;;;;;;5045980;28;20437;-75
2022/08/08 08:26:46;;;;;;;;;;;28.80;68.20;;;;;;5054120;28;19919;-76
2022/08/08 08:29:11;;;;;;;;;;;29.30;63.60;;;;;;5053215;28;19917;-76
2022/08/08 08:31:37;;;;;;;;;;;29.20;68.00;;;;;;5053427;28;20370;-76
2022/08/08 08:34:02;;;;;;;;;;;29.10;67.30;;;;;;5050024;28;19913;-76
2022/08/08 08:36:28;;;;;;;;;;;29.10;64.20;;;;;;5054201;28;20276;-76
2022/08/08 08:38:54;;;;;;;;;;;28.50;65.70;;;;;;5054422;28;19916;-76
2022/08/08 08:41:20;;;;;;;;;;;28.70;65.40;;;;;;5054602;28;20404;-77
2022/08/08 08:43:48;;;;;;;;;;;28.80;65.00;;;;;;5053440;28;19909;-76
2022/08/08 08:46:13;;;;;;;;;;;29.00;67.40;;;;;;5052931;28;19991;-76
2022/08/08 08:48:42;;;;;;;;;;;29.90;65.00;;;;;;5054384;28;20401;-76
2022/08/08 08:51:10;;;;;;;;;;;30.20;63.30;;;;;;5054118;28;19916;-76
2022/08/08 08:53:39;;;;;;;;;;;30.30;61.30;;;;;;5053963;28;19909;-76
2022/08/08 08:56:05;;;;;;;;;;;29.60;61.20;;;;;;5052825;28;19920;-76
2022/08/08 08:58:34;;;;;;;;;;;28.90;65.60;;;;;;5053941;28;20546;-75
2022/08/08 09:01:00;;;;;;;;;;;29.40;64.50;;;;;;5048129;28;20382;-76
2022/08/08 09:03:26;;;;;;;;;;;30.20;60.80;;;;;;5050965;28;19908;-75
2022/08/08 09:05:52;;;;;;;;;;;30.50;60.70;;;;;;5053384;28;19962;-75
2022/08/08 09:08:20;;;;;;;;;;;30.40;59.80;;;;;;5053921;28;19962;-75
2022/08/08 09:10:45;;;;;;;;;;;29.90;58.70;;;;;;5053722;28;19909;-75
2022/08/08 09:13:15;;;;;;;;;;;29.90;60.70;;;;;;5045499;28;20228;-76
2022/08/08 09:15:40;;;;;;;;;;;29.90;63.40;;;;;;5052516;28;19909;-74
2022/08/08 09:18:06;;;;;;;;;;;30.20;57.90;;;;;;5053363;28;19916;-75
2022/08/08 09:20:32;;;;;;;;;;;30.70;62.30;;;;;;5052519;28;19920;-75
2022/08/08 09:22:57;;;;;;;;;;;30.10;61.00;;;;;;5053558;28;20133;-76
2022/08/08 09:25:23;;;;;;;;;;;31.10;59.50;;;;;;5053237;28;19908;-75
2022/08/08 09:27:49;;;;;;;;;;;31.10;57.20;;;;;;5055244;28;20365;-76
2022/08/08 09:30:15;;;;;;;;;;;32.20;57.20;;;;;;5051446;28;19915;-75
2022/08/08 09:32:53;;;;;;;;;;;31.80;57.70;;;;;;5055524;28;19912;-76
2022/08/08 09:35:21;;;;;;;;;;;31.10;54.30;;;;;;5051497;28;20442;-76
2022/08/08 09:37:48;;;;;;;;;;;31.70;52.50;;;;;;5053379;28;19995;-76
2022/08/08 09:40:15;;;;;;;;;;;30.90;53.70;;;;;;5053052;28;20385;-76
2022/08/08 09:42:45;;;;;;;;;;;32.10;54.90;;;;;;5052481;28;19987;-76
2022/08/08 09:45:10;;;;;;;;;;;31.60;54.20;;;;;;5050290;28;19962;-76
2022/08/08 09:47:37;;;;;;;;;;;31.60;53.00;;;;;;5052699;28;20716;-76
2022/08/08 09:50:04;;;;;;;;;;;31.70;52.60;;;;;;5052570;28;19940;-76
2022/08/08 09:52:31;;;;;;;;;;;32.40;52.00;;;;;;5052322;28;20000;-76
2022/08/08 09:54:57;;;;;;;;;;;32.60;51.60;;;;;;5051143;28;19909;-77
2022/08/08 09:57:38;;;;;;;;;;;32.80;51.80;;;;;;5051029;28;20038;-77
2022/08/08 10:00:09;;;;;;;;;;;33.30;50.80;;;;;;5051053;28;20315;-77
2022/08/08 10:02:35;;;;;;;;;;;32.80;49.30;;;;;;5042312;28;20374;-77
2022/08/08 10:05:23;;;;;;;;;;;33.00;50.70;;;;;;5056599;28;20206;-76
2022/08/08 10:07:51;;;;;;;;;;;33.10;51.00;;;;;;5045426;28;20413;-77
2022/08/08 10:10:30;;;;;;;;;;;33.30;51.40;;;;;;5031097;28;19916;-76
2022/08/08 10:12:56;;;;;;;;;;;33.50;47.70;;;;;;5046883;28;20293;-75
2022/08/08 10:15:26;;;;;;;;;;;31.80;50.00;;;;;;5050542;28;19909;-76
2022/08/08 10:17:52;;;;;;;;;;;32.10;50.60;;;;;;5053096;28;19915;-76
2022/08/08 10:20:18;;;;;;;;;;;31.90;49.70;;;;;;5052579;28;19917;-75
2022/08/08 10:22:59;;;;;;;;;;;30.50;48.90;;;;;;5051475;28;19939;-75
2022/08/08 10:25:26;;;;;;;;;;;32.20;53.80;;;;;;5049633;28;19909;-76
2022/08/08 10:27:52;;;;;;;;;;;31.80;51.80;;;;;;5051850;28;19909;-76
2022/08/08 10:30:21;;;;;;;;;;;31.60;49.80;;;;;;5051526;28;19908;-76
2022/08/08 10:32:54;;;;;;;;;;;30.90;51.10;;;;;;5051111;28;20267;-76
2022/08/08 10:35:22;;;;;;;;;;;32.20;48.90;;;;;;5048516;28;19916;-75
2022/08/08 10:38:03;;;;;;;;;;;32.90;52.00;;;;;;5055261;28;19909;-76
2022/08/08 10:40:30;;;;;;;;;;;31.50;49.30;;;;;;5051993;28;19919;-75
2022/08/08 10:42:57;;;;;;;;;;;32.50;49.60;;;;;;5048017;28;20520;-76
2022/08/08 10:45:22;;;;;;;;;;;30.90;51.20;;;;;;5050149;28;19999;-76
2022/08/08 10:47:58;;;;;;;;;;;32.10;51.30;;;;;;5050243;28;20396;-75
2022/08/08 10:50:32;;;;;;;;;;;32.40;49.60;;;;;;5045350;28;19917;-76
2022/08/08 10:53:03;;;;;;;;;;;32.70;50.50;;;;;;5051101;28;19916;-75
2022/08/08 10:55:29;;;;;;;;;;;32.40;48.10;;;;;;5045304;28;20390;-76
2022/08/08 10:57:58;;;;;;;;;;;31.00;50.60;;;;;;5050895;28;19955;-75
2022/08/08 11:00:25;;;;;;;;;;;32.10;51.90;;;;;;5045975;28;20138;-75
2022/08/08 11:02:51;;;;;;;;;;;31.60;50.70;;;;;;5045727;28;19966;-75
2022/08/08 11:05:17;;;;;;;;;;;31.80;49.40;;;;;;5048261;28;19916;-75
2022/08/08 11:07:50;;;;;;;;;;;31.60;49.70;;;;;;5049386;28;20358;-75
2022/08/08 11:10:17;;;;;;;;;;;31.90;50.70;;;;;;5051500;28;19916;-75
2022/08/08 11:12:48;;;;;;;;;;;32.50;53.50;;;;;;5050636;28;19909;-75
2022/08/08 11:15:24;;;;;;;;;;;31.10;50.30;;;;;;5050076;28;19913;-74
2022/08/08 11:17:50;;;;;;;;;;;32.30;52.40;;;;;;5051305;28;19939;-75
2022/08/08 11:20:17;;;;;;;;;;;31.30;49.70;;;;;;5049635;28;19912;-75
2022/08/08 11:22:45;;;;;;;;;;;32.60;52.30;;;;;;5050619;28;19909;-75
2022/08/08 11:25:10;;;;;;;;;;;31.90;47.80;;;;;;5049667;28;19913;-75
2022/08/08 11:27:36;;;;;;;;;;;30.30;50.50;;;;;;5050993;28;19939;-75
2022/08/08 11:30:03;;;;;;;;;;;31.50;51.20;;;;;;5050806;28;19909;-75
2022/08/08 11:32:32;;;;;;;;;;;31.40;51.70;;;;;;5050378;28;19959;-78
2022/08/08 11:35:11;;;;;;;;;;;31.50;50.30;;;;;;5055677;28;19955;-75
2022/08/08 11:37:38;;;;;;;;;;;32.50;48.80;;;;;;5048548;28;19967;-74
2022/08/08 11:40:05;;;;;;;;;;;31.50;52.70;;;;;;5043880;28;20324;-75
2022/08/08 11:42:31;;;;;;;;;;;31.20;50.80;;;;;;5050728;28;19994;-75
2022/08/08 11:44:57;;;;;;;;;;;32.10;52.20;;;;;;5048208;28;19909;-75
2022/08/08 11:47:23;;;;;;;;;;;31.20;48.00;;;;;;5050824;28;20000;-75
2022/08/08 11:49:51;;;;;;;;;;;30.30;49.80;;;;;;5050875;28;19912;-75
2022/08/08 11:52:17;;;;;;;;;;;30.20;50.90;;;;;;5050305;28;19909;-75
2022/08/08 11:54:46;;;;;;;;;;;30.80;49.80;;;;;;5050001;28;19931;-75
2022/08/08 11:57:17;;;;;;;;;;;30.60;47.60;;;;;;5050489;28;19915;-75
2022/08/08 11:59:44;;;;;;;;;;;29.80;48.70;;;;;;5049484;28;19909;-75
2022/08/08 12:02:10;;;;;;;;;;;30.20;52.30;;;;;;5042326;28;20259;-75
2022/08/08 12:04:36;;;;;;;;;;;31.50;50.30;;;;;;5051801;28;19909;-75
2022/08/08 12:07:05;;;;;;;;;;;30.40;51.80;;;;;;5051246;28;19963;-76
2022/08/08 12:09:31;;;;;;;;;;;30.50;48.20;;;;;;5052160;28;19924;-75
2022/08/08 12:11:57;;;;;;;;;;;30.00;48.70;;;;;;5051254;28;19909;-74
2022/08/08 12:14:22;;;;;;;;;;;29.60;47.40;;;;;;5050433;28;20215;-74
2022/08/08 12:16:51;;;;;;;;;;;29.70;49.80;;;;;;5051195;28;19908;-76
2022/08/08 12:19:16;;;;;;;;;;;30.10;47.60;;;;;;5051664;28;19940;-79
2022/08/08 12:21:42;;;;;;;;;;;29.90;48.20;;;;;;5051044;28;19975;-79
2022/08/08 12:24:10;;;;;;;;;;;30.10;49.40;;;;;;5049439;28;19916;-75
2022/08/08 12:26:53;;;;;;;;;;;29.60;50.50;;;;;;5050784;28;19909;-75
2022/08/08 12:29:39;;;;;;;;;;;30.30;48.40;;;;;;5051019;28;19909;-76
2022/08/08 12:32:10;;;;;;;;;;;30.50;49.00;;;;;;5045214;28;20388;-78
2022/08/08 12:34:37;;;;;;;;;;;32.10;47.20;;;;;;5050685;28;19908;-74
2022/08/08 12:37:06;;;;;;;;;;;32.90;45.40;;;;;;5050961;28;19916;-77
2022/08/08 12:39:31;;;;;;;;;;;33.00;43.60;;;;;;5051031;28;19916;-75
2022/08/08 12:41:57;;;;;;;;;;;33.00;43.60;;;;;;5050733;28;19912;-76
2022/08/08 12:44:27;;;;;;;;;;;34.40;42.00;;;;;;5050039;28;19952;-75
2022/08/08 12:46:54;;;;;;;;;;;34.40;41.30;;;;;;5050816;28;19908;-77
2022/08/08 12:49:25;;;;;;;;;;;35.60;40.30;;;;;;5051348;28;19909;-74
2022/08/08 12:51:51;;;;;;;;;;;32.90;41.20;;;;;;5052624;28;19948;-77
2022/08/08 12:54:21;;;;;;;;;;;34.00;40.60;;;;;;5053496;28;20462;-73
2022/08/08 12:56:46;;;;;;;;;;;34.20;39.50;;;;;;5053378;28;19912;-75
2022/08/08 12:59:14;;;;;;;;;;;33.30;41.30;;;;;;5054031;28;19931;-74
2022/08/08 13:01:40;;;;;;;;;;;33.70;41.50;;;;;;5044523;28;19916;-75
2022/08/08 13:04:13;;;;;;;;;;;34.80;40.50;;;;;;5050307;28;19999;-75
2022/08/08 13:06:39;;;;;;;;;;;36.00;39.30;;;;;;5045113;28;19915;-74
2022/08/08 13:09:08;;;;;;;;;;;36.90;37.50;;;;;;5054537;28;19921;-77
2022/08/08 13:11:37;;;;;;;;;;;35.40;38.50;;;;;;5055170;28;19912;-76
2022/08/08 13:14:14;;;;;;;;;;;35.00;40.30;;;;;;5055614;28;19913;-74
2022/08/08 13:16:40;;;;;;;;;;;34.10;39.80;;;;;;5054094;28;19909;-75
2022/08/08 13:19:06;;;;;;;;;;;34.90;38.90;;;;;;5054206;28;19955;-75
2022/08/08 13:21:42;;;;;;;;;;;35.60;36.70;;;;;;5052958;28;20386;-75
2022/08/08 13:24:07;;;;;;;;;;;36.10;35.80;;;;;;5053364;28;19909;-74
2022/08/08 13:26:33;;;;;;;;;;;35.20;37.00;;;;;;5053684;28;19954;-74
2022/08/08 13:28:59;;;;;;;;;;;36.00;37.30;;;;;;5053993;28;19916;-74
2022/08/08 13:31:25;;;;;;;;;;;35.70;38.50;;;;;;5052899;28;19996;-75
2022/08/08 13:33:50;;;;;;;;;;;34.80;42.60;;;;;;5051220;28;20007;-76
2022/08/08 13:36:16;;;;;;;;;;;35.10;40.00;;;;;;5052655;28;19930;-75
2022/08/08 13:38:42;;;;;;;;;;;35.30;40.90;;;;;;5052605;28;20380;-75
2022/08/08 13:41:08;;;;;;;;;;;35.70;37.10;;;;;;5052887;28;20016;-76
2022/08/08 13:43:33;;;;;;;;;;;35.00;37.20;;;;;;5052383;28;19909;-75
2022/08/08 13:46:12;;;;;;;;;;;34.70;37.20;;;;;;5052457;28;19909;-75
2022/08/08 13:48:45;;;;;;;;;;;34.80;39.50;;;;;;5052469;28;19916;-75
2022/08/08 13:51:10;;;;;;;;;;;33.70;38.90;;;;;;5052795;28;19924;-75
2022/08/08 13:53:39;;;;;;;;;;;33.90;40.20;;;;;;5051612;28;20375;-75
2022/08/08 13:56:07;;;;;;;;;;;34.20;40.60;;;;;;5052430;28;19919;-74
2022/08/08 13:58:33;;;;;;;;;;;35.60;38.00;;;;;;5052395;28;19908;-75
2022/08/08 14:01:15;;;;;;;;;;;35.00;38.10;;;;;;5047396;28;19913;-75
2022/08/08 14:03:50;;;;;;;;;;;33.90;39.70;;;;;;5046536;28;19909;-76
2022/08/08 14:06:15;;;;;;;;;;;35.20;41.30;;;;;;5049534;28;19913;-75
2022/08/08 14:08:44;;;;;;;;;;;35.00;39.20;;;;;;5041905;28;19916;-75
2022/08/08 14:11:17;;;;;;;;;;;35.30;38.20;;;;;;5050695;28;19923;-75
2022/08/08 14:13:43;;;;;;;;;;;34.50;39.10;;;;;;5049339;28;19915;-76
2022/08/08 14:16:08;;;;;;;;;;;35.60;41.60;;;;;;5041962;28;19913;-76
2022/08/08 14:18:34;;;;;;;;;;;36.30;39.80;;;;;;5050841;28;20007;-76
2022/08/08 14:21:02;;;;;;;;;;;36.40;35.60;;;;;;5052110;28;20005;-75
2022/08/08 14:23:38;;;;;;;;;;;36.50;36.10;;;;;;5049396;28;20000;-76
2022/08/08 14:26:03;;;;;;;;;;;36.10;36.40;;;;;;5052143;28;19916;-76
2022/08/08 14:28:29;;;;;;;;;;;36.10;37.70;;;;;;5051791;28;19909;-76
2022/08/08 14:31:04;;;;;;;;;;;35.60;36.30;;;;;;5049542;28;19916;-76
2022/08/08 14:33:30;;;;;;;;;;;34.20;38.50;;;;;;5048780;28;19909;-75
2022/08/08 14:35:59;;;;;;;;;;;33.60;37.80;;;;;;5049482;28;20310;-75
2022/08/08 14:38:28;;;;;;;;;;;34.30;38.40;;;;;;5049178;28;20370;-76
2022/08/08 14:40:54;;;;;;;;;;;34.60;38.70;;;;;;5048859;28;19920;-75